createdAt,value
2018-08-31T00:00:31.244Z,0
2018-08-31T00:01:41.505Z,0
2018-08-31T00:02:51.663Z,0
2018-08-31T00:04:01.842Z,0
2018-08-31T00:05:12.158Z,0
2018-08-31T00:06:22.314Z,0
2018-08-31T00:07:32.275Z,0
2018-08-31T00:08:42.442Z,0
2018-08-31T00:09:52.563Z,0
2018-08-31T00:11:02.753Z,0
2018-08-31T00:12:12.626Z,0
2018-08-31T00:13:22.747Z,0
2018-08-31T00:14:32.502Z,0
2018-08-31T00:15:42.700Z,0
2018-08-31T00:16:52.959Z,0
2018-08-31T00:18:03.193Z,0
2018-08-31T00:19:13.138Z,0
2018-08-31T00:20:23.255Z,0
2018-08-31T00:21:33.391Z,0
2018-08-31T00:22:43.561Z,0
2018-08-31T00:23:53.833Z,0
2018-08-31T00:25:04.928Z,0
2018-08-31T00:26:14.800Z,0
2018-08-31T00:27:24.681Z,0
2018-08-31T00:28:34.781Z,0
2018-08-31T00:29:44.600Z,0
2018-08-31T00:30:54.717Z,0
2018-08-31T00:32:04.890Z,0
2018-08-31T00:33:15.236Z,0
2018-08-31T00:34:25.378Z,0
2018-08-31T00:35:35.263Z,0
2018-08-31T00:36:45.425Z,0
2018-08-31T00:37:55.665Z,0
2018-08-31T00:39:05.805Z,0
2018-08-31T00:40:16.948Z,0
2018-08-31T00:41:27.065Z,0
2018-08-31T00:42:37.196Z,0
2018-08-31T00:43:47.329Z,0
2018-08-31T00:44:57.477Z,0
2018-08-31T00:46:07.454Z,0
2018-08-31T00:47:17.618Z,0
2018-08-31T00:48:27.886Z,0
2018-08-31T00:49:38.079Z,0
2018-08-31T00:50:48.327Z,0
2018-08-31T00:51:58.462Z,0
2018-08-31T00:53:08.579Z,0
2018-08-31T00:54:18.734Z,0
2018-08-31T00:55:28.885Z,0
2018-08-31T00:56:39.004Z,0
2018-08-31T00:57:49.126Z,0
2018-08-31T00:58:59.244Z,0
2018-08-31T01:00:09.409Z,0
2018-08-31T01:01:19.550Z,0
2018-08-31T01:02:29.763Z,0
2018-08-31T01:03:39.909Z,0
2018-08-31T01:04:50.035Z,0
2018-08-31T01:05:59.941Z,0
2018-08-31T01:07:10.062Z,0
2018-08-31T01:08:20.212Z,0
2018-08-31T01:09:30.160Z,0
2018-08-31T01:10:40.293Z,0
2018-08-31T01:11:50.438Z,0
2018-08-31T01:13:00.595Z,0
2018-08-31T01:14:10.765Z,0
2018-08-31T01:15:20.896Z,0
2018-08-31T01:16:31.051Z,0
2018-08-31T01:17:41.180Z,0
2018-08-31T01:18:51.308Z,0
2018-08-31T01:20:01.073Z,0
2018-08-31T01:21:11.313Z,0
2018-08-31T01:22:21.606Z,0
2018-08-31T01:23:31.730Z,0
2018-08-31T01:24:41.927Z,0
2018-08-31T01:25:52.106Z,0
2018-08-31T01:27:02.353Z,0
2018-08-31T01:28:12.529Z,0
2018-08-31T01:29:22.714Z,0
2018-08-31T01:30:32.850Z,0
2018-08-31T01:31:43.013Z,0
2018-08-31T01:32:53.173Z,0
2018-08-31T01:34:03.291Z,0
2018-08-31T01:35:13.400Z,0
2018-08-31T01:36:23.560Z,0
2018-08-31T01:37:33.705Z,0
2018-08-31T01:38:43.486Z,0
2018-08-31T01:39:53.636Z,0
2018-08-31T01:41:03.809Z,0
2018-08-31T01:42:13.941Z,0
2018-08-31T01:43:24.055Z,0
2018-08-31T01:44:34.196Z,0
2018-08-31T01:45:44.364Z,0
2018-08-31T01:46:54.633Z,0
2018-08-31T01:48:04.828Z,0
2018-08-31T01:49:15.038Z,0
2018-08-31T01:50:25.229Z,0
2018-08-31T01:51:35.355Z,0
2018-08-31T01:52:46.035Z,0
2018-08-31T01:53:56.168Z,0
2018-08-31T01:55:06.382Z,0
2018-08-31T01:56:16.260Z,0
2018-08-31T01:57:26.417Z,0
2018-08-31T01:58:36.545Z,0
2018-08-31T01:59:46.338Z,0
2018-08-31T02:00:56.451Z,0
2018-08-31T02:02:06.476Z,0
2018-08-31T02:03:16.726Z,0
2018-08-31T02:04:27.225Z,0
2018-08-31T02:05:37.339Z,0
2018-08-31T02:06:47.462Z,0
2018-08-31T02:07:57.665Z,0
2018-08-31T02:09:07.834Z,0
2018-08-31T02:10:18.212Z,0
2018-08-31T02:11:28.345Z,0
2018-08-31T02:12:38.261Z,0
2018-08-31T02:13:48.363Z,0
2018-08-31T02:14:59.519Z,0
2018-08-31T02:16:09.715Z,0
2018-08-31T02:17:19.643Z,0
2018-08-31T02:18:29.769Z,0
2018-08-31T02:19:39.638Z,0
2018-08-31T02:20:49.865Z,0
2018-08-31T02:22:00.045Z,0
2018-08-31T02:23:10.169Z,0
2018-08-31T02:24:20.318Z,0
2018-08-31T02:25:30.222Z,0
2018-08-31T02:26:40.148Z,0
2018-08-31T02:27:50.406Z,0
2018-08-31T02:29:00.266Z,0
2018-08-31T02:30:10.179Z,0
2018-08-31T02:31:20.317Z,0
2018-08-31T02:32:29.980Z,0
2018-08-31T02:33:40.153Z,0
2018-08-31T02:34:50.398Z,0
2018-08-31T02:36:00.619Z,0
2018-08-31T02:37:10.760Z,0
2018-08-31T02:38:22.029Z,0
2018-08-31T02:39:32.577Z,0
2018-08-31T02:40:42.483Z,0
2018-08-31T02:41:52.552Z,0
2018-08-31T02:43:02.659Z,0
2018-08-31T02:44:12.793Z,0
2018-08-31T02:45:22.916Z,0
2018-08-31T02:46:32.730Z,0
2018-08-31T02:47:42.843Z,0
2018-08-31T02:48:53.020Z,0
2018-08-31T02:50:03.313Z,0
2018-08-31T02:51:13.581Z,0
2018-08-31T02:52:23.757Z,0
2018-08-31T02:53:34.028Z,0
2018-08-31T02:54:44.171Z,0
2018-08-31T02:55:54.390Z,0
2018-08-31T02:57:04.248Z,0
2018-08-31T02:58:14.393Z,0
2018-08-31T02:59:24.615Z,0
2018-08-31T03:00:34.770Z,0
2018-08-31T03:01:44.904Z,0
2018-08-31T03:02:55.166Z,0
2018-08-31T03:04:05.309Z,0
2018-08-31T03:05:15.180Z,0
2018-08-31T03:06:25.479Z,0
2018-08-31T03:07:35.706Z,0
2018-08-31T03:08:45.849Z,0
2018-08-31T03:09:55.989Z,0
2018-08-31T03:11:06.210Z,0
2018-08-31T03:12:16.371Z,0
2018-08-31T03:13:26.521Z,0
2018-08-31T03:14:36.670Z,0
2018-08-31T03:15:46.813Z,0
2018-08-31T03:16:56.925Z,0
2018-08-31T03:18:07.070Z,0
2018-08-31T03:19:17.264Z,0
2018-08-31T03:20:27.410Z,0
2018-08-31T03:21:37.512Z,0
2018-08-31T03:22:47.648Z,0
2018-08-31T03:23:57.816Z,0
2018-08-31T03:25:08.212Z,0
2018-08-31T03:26:18.346Z,0
2018-08-31T03:27:28.229Z,0
2018-08-31T03:28:38.356Z,0
2018-08-31T03:29:48.511Z,0
2018-08-31T03:30:58.655Z,0
2018-08-31T03:32:09.802Z,0
2018-08-31T03:33:19.669Z,0
2018-08-31T03:34:29.828Z,0
2018-08-31T03:35:39.971Z,0
2018-08-31T03:36:50.444Z,0
2018-08-31T03:38:00.579Z,0
2018-08-31T03:39:10.754Z,0
2018-08-31T03:40:20.924Z,0
2018-08-31T03:41:31.060Z,0
2018-08-31T03:42:40.676Z,0
2018-08-31T03:43:50.672Z,0
2018-08-31T03:45:00.834Z,0
2018-08-31T03:46:11.970Z,0
2018-08-31T03:47:22.221Z,0
2018-08-31T03:48:32.407Z,0
2018-08-31T03:49:42.593Z,0
2018-08-31T03:50:52.814Z,0
2018-08-31T03:52:03.055Z,0
2018-08-31T03:53:13.344Z,0
2018-08-31T03:54:23.565Z,0
2018-08-31T03:55:33.806Z,0
2018-08-31T03:56:43.999Z,0
2018-08-31T03:57:54.224Z,0
2018-08-31T03:59:04.344Z,0
2018-08-31T04:00:14.587Z,0
2018-08-31T04:01:24.811Z,0
2018-08-31T04:02:34.680Z,0
2018-08-31T04:03:44.868Z,0
2018-08-31T04:04:55.019Z,0
2018-08-31T04:06:05.206Z,0
2018-08-31T04:07:15.335Z,0
2018-08-31T04:08:25.469Z,0
2018-08-31T04:09:35.603Z,0
2018-08-31T04:10:45.780Z,0
2018-08-31T04:11:55.554Z,0
2018-08-31T04:13:05.722Z,0
2018-08-31T04:14:15.967Z,0
2018-08-31T04:15:26.170Z,0
2018-08-31T04:16:36.330Z,0
2018-08-31T04:17:46.192Z,0
2018-08-31T04:18:55.969Z,0
2018-08-31T04:20:06.110Z,0
2018-08-31T04:21:16.350Z,5
2018-08-31T04:22:26.500Z,5
2018-08-31T04:23:36.637Z,5
2018-08-31T04:24:46.536Z,5
2018-08-31T04:25:56.460Z,5
2018-08-31T04:27:06.342Z,5
2018-08-31T04:28:16.244Z,5
2018-08-31T04:29:26.025Z,10
2018-08-31T04:30:36.187Z,10
2018-08-31T04:31:46.055Z,10
2018-08-31T04:32:56.186Z,10
2018-08-31T04:34:06.348Z,10
2018-08-31T04:35:16.158Z,10
2018-08-31T04:36:26.182Z,15
2018-08-31T04:37:36.205Z,15
2018-08-31T04:38:46.365Z,15
2018-08-31T04:39:56.477Z,15
2018-08-31T04:41:06.632Z,15
2018-08-31T04:42:16.525Z,15
2018-08-31T04:43:26.670Z,20
2018-08-31T04:44:36.428Z,20
2018-08-31T04:45:46.567Z,20
2018-08-31T04:46:56.432Z,20
2018-08-31T04:48:06.198Z,20
2018-08-31T04:49:16.063Z,25
2018-08-31T04:50:26.628Z,25
2018-08-31T04:51:36.545Z,25
2018-08-31T04:52:46.743Z,25
2018-08-31T04:53:56.878Z,30
2018-08-31T04:55:06.753Z,30
2018-08-31T04:56:16.644Z,30
2018-08-31T04:57:26.417Z,30
2018-08-31T04:58:36.313Z,35
2018-08-31T04:59:46.276Z,35
2018-08-31T05:00:56.187Z,35
2018-08-31T05:02:07.291Z,40
2018-08-31T05:03:17.434Z,40
2018-08-31T05:04:27.328Z,40
2018-08-31T05:05:37.479Z,45
2018-08-31T05:06:47.654Z,45
2018-08-31T05:07:57.814Z,45
2018-08-31T05:09:07.386Z,45
2018-08-31T05:10:17.508Z,50
2018-08-31T05:11:27.468Z,50
2018-08-31T05:12:37.424Z,50
2018-08-31T05:13:47.575Z,50
2018-08-31T05:14:57.794Z,50
2018-08-31T05:16:07.587Z,50
2018-08-31T05:17:17.831Z,50
2018-08-31T05:18:27.758Z,55
2018-08-31T05:19:38.041Z,55
2018-08-31T05:20:48.305Z,55
2018-08-31T05:21:58.438Z,55
2018-08-31T05:23:08.829Z,60
2018-08-31T05:24:18.953Z,65
2018-08-31T05:25:29.114Z,70
2018-08-31T05:26:39.292Z,70
2018-08-31T05:27:49.419Z,70
2018-08-31T05:28:59.548Z,75
2018-08-31T05:30:09.689Z,75
2018-08-31T05:31:19.817Z,80
2018-08-31T05:32:29.980Z,80
2018-08-31T05:33:40.189Z,85
2018-08-31T05:34:50.792Z,85
2018-08-31T05:36:01.081Z,85
2018-08-31T05:37:11.326Z,85
2018-08-31T05:38:21.188Z,85
2018-08-31T05:39:31.051Z,90
2018-08-31T05:40:40.602Z,90
2018-08-31T05:41:50.767Z,95
2018-08-31T05:43:00.983Z,95
2018-08-31T05:44:11.235Z,95
2018-08-31T05:45:21.378Z,95
2018-08-31T05:46:31.576Z,95
2018-08-31T05:47:41.689Z,100
2018-08-31T05:48:51.435Z,105
2018-08-31T05:50:01.580Z,110
2018-08-31T05:51:11.698Z,110
2018-08-31T05:52:21.873Z,110
2018-08-31T05:53:32.349Z,110
2018-08-31T05:54:42.344Z,115
2018-08-31T05:55:52.227Z,115
2018-08-31T05:57:02.433Z,115
2018-08-31T05:58:13.542Z,120
2018-08-31T05:59:23.741Z,115
2018-08-31T06:00:33.626Z,115
2018-08-31T06:01:43.819Z,120
2018-08-31T06:02:53.714Z,120
2018-08-31T06:04:03.901Z,120
2018-08-31T06:05:14.027Z,120
2018-08-31T06:06:24.163Z,120
2018-08-31T06:07:34.313Z,120
2018-08-31T06:08:44.436Z,125
2018-08-31T06:09:54.266Z,130
2018-08-31T06:11:04.460Z,130
2018-08-31T06:12:14.638Z,135
2018-08-31T06:13:24.770Z,145
2018-08-31T06:14:34.407Z,145
2018-08-31T06:15:44.541Z,145
2018-08-31T06:16:54.661Z,150
2018-08-31T06:18:04.812Z,155
2018-08-31T06:19:14.932Z,150
2018-08-31T06:20:25.148Z,155
2018-08-31T06:21:35.477Z,155
2018-08-31T06:22:45.617Z,155
2018-08-31T06:23:55.742Z,160
2018-08-31T06:25:05.869Z,160
2018-08-31T06:26:15.997Z,165
2018-08-31T06:27:25.816Z,170
2018-08-31T06:28:35.652Z,175
2018-08-31T06:29:45.408Z,185
2018-08-31T06:30:55.551Z,185
2018-08-31T06:32:05.666Z,190
2018-08-31T06:33:15.798Z,195
2018-08-31T06:34:25.926Z,200
2018-08-31T06:35:36.141Z,205
2018-08-31T06:36:46.487Z,205
2018-08-31T06:37:56.389Z,205
2018-08-31T06:39:06.529Z,205
2018-08-31T06:40:16.648Z,210
2018-08-31T06:41:26.524Z,215
2018-08-31T06:42:36.662Z,210
2018-08-31T06:43:46.803Z,210
2018-08-31T06:44:56.962Z,215
2018-08-31T06:46:07.094Z,215
2018-08-31T06:47:17.343Z,215
2018-08-31T06:48:27.572Z,220
2018-08-31T06:49:38.692Z,220
2018-08-31T06:50:48.902Z,220
2018-08-31T06:51:58.945Z,220
2018-08-31T06:53:09.060Z,220
2018-08-31T06:54:19.257Z,220
2018-08-31T06:55:29.392Z,220
2018-08-31T06:56:39.752Z,220
2018-08-31T06:57:49.635Z,220
2018-08-31T06:58:59.814Z,225
2018-08-31T07:00:09.681Z,225
2018-08-31T07:01:19.801Z,225
2018-08-31T07:02:29.963Z,230
2018-08-31T07:03:39.849Z,230
2018-08-31T07:04:50.196Z,230
2018-08-31T07:06:00.457Z,235
2018-08-31T07:07:10.635Z,240
2018-08-31T07:08:20.782Z,245
2018-08-31T07:09:31.008Z,245
2018-08-31T07:10:41.287Z,250
2018-08-31T07:11:51.497Z,255
2018-08-31T07:13:01.510Z,260
2018-08-31T07:14:11.652Z,270
2018-08-31T07:15:21.835Z,270
2018-08-31T07:16:31.961Z,270
2018-08-31T07:17:42.142Z,280
2018-08-31T07:18:52.338Z,285
2018-08-31T07:20:03.129Z,290
2018-08-31T07:21:13.312Z,290
2018-08-31T07:22:23.484Z,295
2018-08-31T07:23:33.659Z,300
2018-08-31T07:24:43.808Z,300
2018-08-31T07:25:53.941Z,300
2018-08-31T07:27:04.383Z,310
2018-08-31T07:28:14.581Z,305
2018-08-31T07:29:24.634Z,310
2018-08-31T07:30:34.782Z,310
2018-08-31T07:31:44.960Z,315
2018-08-31T07:32:55.117Z,315
2018-08-31T07:34:05.328Z,325
2018-08-31T07:35:15.467Z,325
2018-08-31T07:36:26.349Z,325
2018-08-31T07:37:36.299Z,330
2018-08-31T07:38:46.175Z,335
2018-08-31T07:39:56.404Z,335
2018-08-31T07:41:06.669Z,335
2018-08-31T07:42:16.888Z,335
2018-08-31T07:43:27.085Z,335
2018-08-31T07:44:36.959Z,335
2018-08-31T07:45:47.114Z,340
2018-08-31T07:46:56.997Z,345
2018-08-31T07:48:07.225Z,350
2018-08-31T07:49:17.351Z,355
2018-08-31T07:50:27.490Z,350
2018-08-31T07:51:37.418Z,355
2018-08-31T07:52:47.546Z,355
2018-08-31T07:53:58.175Z,355
2018-08-31T07:55:08.441Z,355
2018-08-31T07:56:18.603Z,355
2018-08-31T07:57:28.780Z,350
2018-08-31T07:58:38.998Z,345
2018-08-31T07:59:50.125Z,345
2018-08-31T08:01:00.249Z,340
2018-08-31T08:02:10.375Z,345
2018-08-31T08:03:20.335Z,335
2018-08-31T08:04:30.572Z,330
2018-08-31T08:05:40.405Z,325
2018-08-31T08:06:50.472Z,330
2018-08-31T08:08:00.595Z,340
2018-08-31T08:09:10.234Z,355
2018-08-31T08:10:19.834Z,360
2018-08-31T08:11:30.147Z,365
2018-08-31T08:12:40.282Z,380
2018-08-31T08:13:50.517Z,380
2018-08-31T08:15:00.991Z,380
2018-08-31T08:16:11.229Z,360
2018-08-31T08:17:21.591Z,340
2018-08-31T08:18:31.766Z,330
2018-08-31T08:19:42.184Z,320
2018-08-31T08:20:52.342Z,315
2018-08-31T08:22:02.122Z,310
2018-08-31T08:23:12.002Z,320
2018-08-31T08:24:21.905Z,315
2018-08-31T08:25:32.031Z,320
2018-08-31T08:26:42.183Z,335
2018-08-31T08:27:52.309Z,335
2018-08-31T08:29:02.467Z,345
2018-08-31T08:30:12.626Z,360
2018-08-31T08:31:22.293Z,370
2018-08-31T08:32:32.495Z,375
2018-08-31T08:33:42.729Z,380
2018-08-31T08:34:52.588Z,390
2018-08-31T08:36:03.097Z,395
2018-08-31T08:37:13.361Z,400
2018-08-31T08:38:23.567Z,405
2018-08-31T08:39:33.801Z,405
2018-08-31T08:40:43.950Z,410
2018-08-31T08:41:53.927Z,415
2018-08-31T08:43:04.153Z,420
2018-08-31T08:44:14.026Z,420
2018-08-31T08:45:24.177Z,425
2018-08-31T08:46:34.305Z,440
2018-08-31T08:47:44.446Z,445
2018-08-31T08:48:55.502Z,455
2018-08-31T08:50:05.765Z,465
2018-08-31T08:51:15.930Z,485
2018-08-31T08:52:26.087Z,500
2018-08-31T08:53:36.221Z,510
2018-08-31T08:54:46.464Z,540
2018-08-31T08:55:56.631Z,590
2018-08-31T08:57:06.776Z,615
2018-08-31T08:58:17.365Z,660
2018-08-31T08:59:27.610Z,700
2018-08-31T09:00:37.786Z,700
2018-08-31T09:01:47.937Z,710
2018-08-31T09:02:58.115Z,770
2018-08-31T09:04:08.241Z,775
2018-08-31T09:05:18.462Z,795
2018-08-31T09:06:28.488Z,900
2018-08-31T09:07:38.717Z,1095
2018-08-31T09:08:48.878Z,1225
2018-08-31T09:09:58.865Z,1335
2018-08-31T09:11:08.813Z,1340
2018-08-31T09:12:19.338Z,1325
2018-08-31T09:13:29.558Z,1265
2018-08-31T09:14:39.538Z,1255
2018-08-31T09:15:49.481Z,1195
2018-08-31T09:16:59.621Z,1000
2018-08-31T09:18:09.752Z,1210
2018-08-31T09:19:19.943Z,1420
2018-08-31T09:20:30.383Z,1190
2018-08-31T09:21:40.518Z,1205
2018-08-31T09:22:50.721Z,985
2018-08-31T09:24:00.901Z,675
2018-08-31T09:25:11.063Z,600
2018-08-31T09:26:21.287Z,600
2018-08-31T09:27:31.457Z,510
2018-08-31T09:28:41.629Z,675
2018-08-31T09:29:51.904Z,730
2018-08-31T09:31:02.316Z,1060
2018-08-31T09:32:11.944Z,1395
2018-08-31T09:33:22.197Z,1465
2018-08-31T09:34:32.086Z,1115
2018-08-31T09:35:41.861Z,1470
2018-08-31T09:36:51.750Z,1650
2018-08-31T09:38:02.012Z,1515
2018-08-31T09:39:12.178Z,1690
2018-08-31T09:40:22.315Z,955
2018-08-31T09:41:32.454Z,1925
2018-08-31T09:42:42.607Z,2010
2018-08-31T09:43:52.954Z,2095
2018-08-31T09:45:03.131Z,2120
2018-08-31T09:46:13.284Z,2045
2018-08-31T09:47:23.416Z,2030
2018-08-31T09:48:33.598Z,1915
2018-08-31T09:49:43.911Z,1970
2018-08-31T09:50:53.749Z,1955
2018-08-31T09:52:03.701Z,1980
2018-08-31T09:53:19.132Z,2030
2018-08-31T09:54:29.026Z,2110
2018-08-31T09:58:35.770Z,2110
2018-08-31T10:00:58.519Z,935
2018-08-31T10:02:08.691Z,2080
2018-08-31T10:03:18.620Z,2105
2018-08-31T10:04:28.519Z,2155
2018-08-31T10:05:38.679Z,2185
2018-08-31T10:06:48.564Z,2245
2018-08-31T10:07:58.703Z,2290
2018-08-31T10:09:08.509Z,2295
2018-08-31T10:10:18.661Z,2325
2018-08-31T10:11:29.812Z,2355
2018-08-31T10:12:40.013Z,635
2018-08-31T10:13:50.185Z,2055
2018-08-31T10:15:00.393Z,2290
2018-08-31T10:16:11.603Z,2290
2018-08-31T10:17:21.854Z,2265
2018-08-31T10:18:32.062Z,2295
2018-08-31T10:19:41.985Z,2265
2018-08-31T10:20:52.136Z,2275
2018-08-31T10:22:02.282Z,2295
2018-08-31T10:23:12.188Z,2325
2018-08-31T10:24:22.362Z,2345
2018-08-31T10:25:32.505Z,2335
2018-08-31T10:26:42.671Z,1855
2018-08-31T10:27:52.853Z,2340
2018-08-31T10:29:03.051Z,2315
2018-08-31T10:30:13.314Z,2325
2018-08-31T10:31:23.539Z,2310
2018-08-31T10:32:33.939Z,2315
2018-08-31T10:33:44.097Z,2230
2018-08-31T10:34:53.984Z,1940
2018-08-31T10:36:04.156Z,2315
2018-08-31T10:37:14.044Z,2335
2018-08-31T10:38:24.208Z,1930
2018-08-31T10:39:34.388Z,2355
2018-08-31T10:40:44.351Z,2385
2018-08-31T10:41:54.555Z,2405
2018-08-31T10:44:21.353Z,1295
2018-08-31T10:45:31.508Z,1405
2018-08-31T10:46:42.382Z,2495
2018-08-31T10:47:52.315Z,2350
2018-08-31T10:49:02.507Z,2535
2018-08-31T10:50:12.910Z,2200
2018-08-31T10:51:23.130Z,480
2018-08-31T10:52:33.354Z,455
2018-08-31T10:53:46.030Z,430
2018-08-31T10:54:57.588Z,485
2018-08-31T10:56:07.798Z,1265
2018-08-31T10:57:17.941Z,2435
2018-08-31T10:58:28.125Z,2425
2018-08-31T10:59:38.314Z,1655
2018-08-31T11:00:48.466Z,1010
2018-08-31T11:01:58.650Z,2545
2018-08-31T11:03:08.622Z,805
2018-08-31T11:04:18.768Z,2395
2018-08-31T11:05:28.912Z,2235
2018-08-31T11:06:39.108Z,1930
2018-08-31T11:07:49.251Z,875
2018-08-31T11:08:59.430Z,460
2018-08-31T11:10:09.593Z,425
2018-08-31T11:11:19.798Z,390
2018-08-31T11:12:30.136Z,460
2018-08-31T11:13:40.347Z,2165
2018-08-31T11:14:50.601Z,2280
2018-08-31T11:16:00.766Z,2345
2018-08-31T11:17:10.640Z,2355
2018-08-31T11:18:20.861Z,460
2018-08-31T11:19:30.763Z,405
2018-08-31T11:20:40.892Z,400
2018-08-31T11:21:50.935Z,405
2018-08-31T11:23:01.104Z,450
2018-08-31T11:24:11.295Z,565
2018-08-31T11:25:21.239Z,2270
2018-08-31T11:26:31.426Z,2325
2018-08-31T11:27:41.505Z,2560
2018-08-31T11:28:51.664Z,2470
2018-08-31T11:30:01.560Z,645
2018-08-31T11:31:11.481Z,2135
2018-08-31T11:32:21.286Z,605
2018-08-31T11:33:31.189Z,520
2018-08-31T11:34:41.351Z,1020
2018-08-31T11:35:51.538Z,905
2018-08-31T11:37:01.755Z,1870
2018-08-31T11:38:11.951Z,2220
2018-08-31T11:39:22.251Z,2355
2018-08-31T11:40:32.454Z,1815
2018-08-31T11:41:42.711Z,2190
2018-08-31T11:42:52.980Z,1785
2018-08-31T11:44:04.212Z,510
2018-08-31T11:45:14.256Z,425
2018-08-31T11:46:24.488Z,465
2018-08-31T11:47:34.865Z,510
2018-08-31T11:48:44.762Z,1965
2018-08-31T11:49:54.936Z,1720
2018-08-31T11:51:05.078Z,1525
2018-08-31T11:52:15.237Z,530
2018-08-31T11:53:25.476Z,410
2018-08-31T11:54:35.644Z,325
2018-08-31T11:55:45.809Z,310
2018-08-31T11:56:55.787Z,315
2018-08-31T11:58:05.981Z,340
2018-08-31T11:59:16.151Z,380
2018-08-31T12:00:26.286Z,430
2018-08-31T12:01:36.725Z,760
2018-08-31T12:02:46.893Z,465
2018-08-31T12:03:57.077Z,1045
2018-08-31T12:05:07.255Z,620
2018-08-31T12:06:17.047Z,2245
2018-08-31T12:07:27.182Z,2330
2018-08-31T12:08:37.318Z,585
2018-08-31T12:09:47.560Z,445
2018-08-31T12:10:57.745Z,430
2018-08-31T12:12:07.909Z,400
2018-08-31T12:13:18.074Z,460
2018-08-31T12:14:28.404Z,555
2018-08-31T12:15:38.548Z,720
2018-08-31T12:16:48.700Z,1355
2018-08-31T12:17:59.089Z,1460
2018-08-31T12:19:09.303Z,1920
2018-08-31T12:20:19.573Z,1350
2018-08-31T12:21:29.717Z,565
2018-08-31T12:22:39.656Z,490
2018-08-31T12:23:49.820Z,405
2018-08-31T12:25:00.002Z,345
2018-08-31T12:26:10.212Z,290
2018-08-31T12:27:20.351Z,260
2018-08-31T12:28:30.638Z,230
2018-08-31T12:29:40.883Z,230
2018-08-31T12:30:51.123Z,245
2018-08-31T12:32:01.305Z,280
2018-08-31T12:33:11.490Z,360
2018-08-31T12:34:21.672Z,480
2018-08-31T12:35:31.844Z,635
2018-08-31T12:36:42.087Z,515
2018-08-31T12:37:52.366Z,420
2018-08-31T12:39:02.340Z,415
2018-08-31T12:40:12.499Z,490
2018-08-31T12:41:22.408Z,665
2018-08-31T12:42:32.118Z,625
2018-08-31T12:43:42.411Z,520
2018-08-31T12:44:52.622Z,485
2018-08-31T12:46:02.684Z,480
2018-08-31T12:47:12.835Z,520
2018-08-31T12:48:23.033Z,450
2018-08-31T12:49:33.285Z,420
2018-08-31T12:50:43.441Z,400
2018-08-31T12:51:53.632Z,400
2018-08-31T12:53:03.987Z,425
2018-08-31T12:54:14.126Z,490
2018-08-31T12:55:24.012Z,715
2018-08-31T12:56:34.201Z,1230
2018-08-31T12:57:44.375Z,1535
2018-08-31T12:58:54.542Z,1280
2018-08-31T13:00:04.868Z,1180
2018-08-31T13:01:15.128Z,525
2018-08-31T13:02:25.296Z,525
2018-08-31T13:03:35.463Z,495
2018-08-31T13:04:45.624Z,490
2018-08-31T13:05:56.079Z,465
2018-08-31T13:07:07.045Z,440
2018-08-31T13:08:17.213Z,420
2018-08-31T13:09:27.452Z,370
2018-08-31T13:10:38.559Z,340
2018-08-31T13:11:48.818Z,325
2018-08-31T13:12:59.090Z,350
2018-08-31T13:14:09.319Z,385
2018-08-31T13:15:19.532Z,440
2018-08-31T13:16:29.693Z,1170
2018-08-31T13:17:39.913Z,1075
2018-08-31T13:18:50.119Z,1640
2018-08-31T13:20:00.713Z,510
2018-08-31T13:21:11.324Z,1860
2018-08-31T13:22:21.457Z,860
2018-08-31T13:23:31.632Z,1920
2018-08-31T13:24:41.777Z,1920
2018-08-31T13:25:51.957Z,1890
2018-08-31T13:27:02.206Z,1880
2018-08-31T13:28:12.480Z,1880
2018-08-31T13:29:22.650Z,1870
2018-08-31T13:30:32.572Z,1855
2018-08-31T13:31:42.262Z,1845
2018-08-31T13:32:52.163Z,1835
2018-08-31T13:34:02.429Z,1830
2018-08-31T13:35:12.644Z,1805
2018-08-31T13:36:22.806Z,1790
2018-08-31T13:37:32.744Z,1775
2018-08-31T13:38:43.060Z,1770
2018-08-31T13:39:53.236Z,1755
2018-08-31T13:41:03.422Z,1715
2018-08-31T13:42:13.677Z,445
2018-08-31T13:43:23.844Z,335
2018-08-31T13:44:34.101Z,330
2018-08-31T13:45:44.485Z,345
2018-08-31T13:46:54.355Z,305
2018-08-31T13:48:05.775Z,295
2018-08-31T13:49:16.212Z,305
2018-08-31T13:50:26.382Z,365
2018-08-31T13:51:36.557Z,1105
2018-08-31T13:52:46.940Z,375
2018-08-31T13:53:57.261Z,355
2018-08-31T13:55:07.476Z,335
2018-08-31T13:56:17.720Z,375
2018-08-31T13:57:27.906Z,650
2018-08-31T13:58:38.246Z,1685
2018-08-31T13:59:48.612Z,1700
2018-08-31T14:00:58.784Z,1655
2018-08-31T14:02:08.674Z,1640
2018-08-31T14:03:18.848Z,375
2018-08-31T14:04:29.002Z,1150
2018-08-31T14:05:39.170Z,315
2018-08-31T14:06:49.333Z,305
2018-08-31T14:07:59.619Z,310
2018-08-31T14:09:09.798Z,335
2018-08-31T14:10:19.968Z,365
2018-08-31T14:11:30.133Z,605
2018-08-31T14:12:40.199Z,1590
2018-08-31T14:13:50.377Z,1565
2018-08-31T14:15:00.290Z,1565
2018-08-31T14:16:10.651Z,400
2018-08-31T14:17:20.822Z,360
2018-08-31T14:18:30.982Z,360
2018-08-31T14:19:41.133Z,670
2018-08-31T14:20:51.352Z,345
2018-08-31T14:22:01.255Z,290
2018-08-31T14:23:11.454Z,270
2018-08-31T14:24:21.648Z,305
2018-08-31T14:25:31.818Z,315
2018-08-31T14:26:43.083Z,365
2018-08-31T14:27:53.351Z,995
2018-08-31T14:29:03.533Z,415
2018-08-31T14:30:13.438Z,335
2018-08-31T14:31:23.645Z,390
2018-08-31T14:32:34.761Z,350
2018-08-31T14:33:44.944Z,330
2018-08-31T14:34:55.098Z,385
2018-08-31T14:36:04.998Z,580
2018-08-31T14:37:15.148Z,1365
2018-08-31T14:38:25.303Z,1335
2018-08-31T14:39:35.310Z,1310
2018-08-31T14:40:45.464Z,1290
2018-08-31T14:41:55.635Z,1280
2018-08-31T14:43:05.836Z,1275
2018-08-31T14:44:16.226Z,1280
2018-08-31T14:45:26.491Z,1270
2018-08-31T14:46:36.735Z,1265
2018-08-31T14:47:47.123Z,1240
2018-08-31T14:48:57.333Z,1275
2018-08-31T14:50:07.561Z,1290
2018-08-31T14:51:17.741Z,1290
2018-08-31T14:52:27.962Z,1275
2018-08-31T14:53:38.127Z,1240
2018-08-31T14:54:48.362Z,1255
2018-08-31T14:55:58.569Z,555
2018-08-31T14:57:09.080Z,1235
2018-08-31T14:58:19.474Z,350
2018-08-31T14:59:29.403Z,305
2018-08-31T15:00:39.601Z,300
2018-08-31T15:01:49.783Z,1170
2018-08-31T15:02:59.987Z,1195
2018-08-31T15:04:10.350Z,305
2018-08-31T15:05:20.282Z,630
2018-08-31T15:06:30.698Z,695
2018-08-31T15:07:40.506Z,1065
2018-08-31T15:08:50.672Z,1045
2018-08-31T15:10:01.081Z,365
2018-08-31T15:11:11.267Z,265
2018-08-31T15:12:21.445Z,265
2018-08-31T15:13:31.609Z,755
2018-08-31T15:14:41.773Z,755
2018-08-31T15:15:51.583Z,240
2018-08-31T15:17:01.785Z,225
2018-08-31T15:18:11.943Z,225
2018-08-31T15:19:21.888Z,560
2018-08-31T15:20:32.179Z,230
2018-08-31T15:21:42.459Z,230
2018-08-31T15:22:52.366Z,250
2018-08-31T15:24:02.615Z,635
2018-08-31T15:25:12.746Z,890
2018-08-31T15:26:23.159Z,360
2018-08-31T15:27:33.341Z,225
2018-08-31T15:28:43.525Z,225
2018-08-31T15:29:53.696Z,265
2018-08-31T15:31:03.840Z,235
2018-08-31T15:32:13.989Z,225
2018-08-31T15:33:24.255Z,220
2018-08-31T15:34:34.227Z,220
2018-08-31T15:35:45.003Z,215
2018-08-31T15:36:55.623Z,215
2018-08-31T15:38:05.875Z,210
2018-08-31T15:39:16.076Z,215
2018-08-31T15:40:26.267Z,470
2018-08-31T15:41:36.441Z,285
2018-08-31T15:42:47.269Z,255
2018-08-31T15:43:57.743Z,260
2018-08-31T15:45:08.015Z,265
2018-08-31T15:46:18.205Z,265
2018-08-31T15:47:28.378Z,255
2018-08-31T15:48:38.608Z,260
2018-08-31T15:49:49.809Z,250
2018-08-31T15:51:00.934Z,225
2018-08-31T15:52:11.202Z,225
2018-08-31T15:53:21.513Z,250
2018-08-31T15:54:31.718Z,275
2018-08-31T15:55:41.876Z,275
2018-08-31T15:56:52.039Z,240
2018-08-31T15:58:02.259Z,215
2018-08-31T15:59:12.483Z,195
2018-08-31T16:00:22.708Z,190
2018-08-31T16:01:32.995Z,200
2018-08-31T16:02:43.285Z,200
2018-08-31T16:03:53.547Z,195
2018-08-31T16:05:03.747Z,190
2018-08-31T16:06:13.902Z,165
2018-08-31T16:07:24.071Z,155
2018-08-31T16:08:34.029Z,160
2018-08-31T16:09:45.154Z,165
2018-08-31T16:10:55.541Z,180
2018-08-31T16:12:05.690Z,185
2018-08-31T16:13:15.857Z,185
2018-08-31T16:14:26.009Z,175
2018-08-31T16:15:36.213Z,170
2018-08-31T16:16:46.385Z,165
2018-08-31T16:17:56.551Z,160
2018-08-31T16:19:07.164Z,160
2018-08-31T16:20:17.097Z,160
2018-08-31T16:21:27.243Z,155
2018-08-31T16:22:37.390Z,155
2018-08-31T16:23:47.633Z,155
2018-08-31T16:24:57.919Z,150
2018-08-31T16:26:08.221Z,145